Time;durP1;ratioP1;P1;durP2;ratioP2;P2;SDS_P1;SDS_P2;PMS_P1;PMS_P2;Temp;Humidity;BMP_temperature;BMP_pressure;BME280_temperature;BME280_humidity;BME280_pressure;Samples;Min_cycle;Max_cycle;Signal;HPM_P1;HPM_P2
2021/06/21 00:00:22;;;;;;;7.43;4.20;;;21.10;98.30;;;;;;4155276;28;20528;-83
2021/06/21 00:02:26;;;;;;;5.73;3.80;;;21.10;98.30;;;;;;4153649;28;20480;-84
2021/06/21 00:04:30;;;;;;;7.40;3.60;;;21.10;98.30;;;;;;4151722;28;20466;-83
2021/06/21 00:06:33;;;;;;;7.17;4.20;;;21.10;98.30;;;;;;4158231;28;20487;-83
2021/06/21 00:08:35;;;;;;;7.50;4.37;;;21.10;98.30;;;;;;4148447;28;20466;-83
2021/06/21 00:10:38;;;;;;;6.00;4.20;;;21.00;98.30;;;;;;4152927;28;20476;-84
2021/06/21 00:12:44;;;;;;;8.77;4.30;;;20.90;98.30;;;;;;4158648;28;20555;-83
2021/06/21 00:14:48;;;;;;;8.03;4.43;;;20.80;98.30;;;;;;4156486;28;20474;-83
2021/06/21 00:16:51;;;;;;;6.73;5.03;;;20.80;98.30;;;;;;4145464;28;20493;-83
2021/06/21 00:18:54;;;;;;;8.13;4.33;;;20.80;98.30;;;;;;4155575;28;20466;-83
2021/06/21 00:20:57;;;;;;;7.93;4.53;;;20.80;98.30;;;;;;4157639;28;20500;-83
2021/06/21 00:23:00;;;;;;;6.60;4.17;;;20.80;98.30;;;;;;4153920;28;20465;-83
2021/06/21 00:25:03;;;;;;;7.90;4.60;;;20.80;98.30;;;;;;4155202;28;20779;-83
2021/06/21 00:27:06;;;;;;;5.37;4.60;;;20.80;98.30;;;;;;4147549;28;20483;-84
2021/06/21 00:29:11;;;;;;;7.83;4.97;;;20.60;98.30;;;;;;4155673;28;20460;-83
2021/06/21 00:31:14;;;;;;;8.93;4.67;;;20.50;98.30;;;;;;4153223;28;20942;-83
2021/06/21 00:33:17;;;;;;;5.53;4.43;;;20.60;98.30;;;;;;4153334;28;20469;-83
2021/06/21 00:35:20;;;;;;;5.50;4.60;;;20.40;98.30;;;;;;4154583;28;20504;-83
2021/06/21 00:37:24;;;;;;;5.30;4.80;;;20.40;98.30;;;;;;4155034;28;20491;-83
2021/06/21 00:39:28;;;;;;;7.40;4.90;;;20.40;98.30;;;;;;4155099;28;20465;-83
2021/06/21 00:41:31;;;;;;;7.30;4.77;;;20.30;98.30;;;;;;4157903;28;20472;-82
2021/06/21 00:43:34;;;;;;;9.00;4.70;;;20.30;98.30;;;;;;4154553;28;20470;-82
2021/06/21 00:45:38;;;;;;;8.63;4.67;;;20.30;98.30;;;;;;4158126;28;20979;-83
2021/06/21 00:47:42;;;;;;;8.73;5.20;;;20.30;98.30;;;;;;4151859;28;20490;-82
2021/06/21 00:49:45;;;;;;;5.23;4.60;;;20.20;98.30;;;;;;4157434;28;20480;-84
2021/06/21 00:51:48;;;;;;;5.40;4.80;;;20.20;98.30;;;;;;4155033;28;20470;-84
2021/06/21 00:53:51;;;;;;;5.70;4.73;;;20.20;98.30;;;;;;4154387;28;20716;-84
2021/06/21 00:55:54;;;;;;;7.07;5.40;;;20.10;98.30;;;;;;4156270;28;20479;-83
2021/06/21 00:57:58;;;;;;;9.10;4.83;;;20.00;98.30;;;;;;4154715;28;20498;-83
2021/06/21 01:00:05;;;;;;;5.10;4.20;;;19.90;98.30;;;;;;4157600;28;20547;-83
2021/06/21 01:02:10;;;;;;;9.27;5.60;;;19.90;98.30;;;;;;4157526;28;20569;-83
2021/06/21 01:04:13;;;;;;;5.90;4.70;;;19.80;98.30;;;;;;4153431;28;20870;-83
2021/06/21 01:06:16;;;;;;;6.77;4.70;;;19.70;98.30;;;;;;4155445;28;20551;-83
2021/06/21 01:08:19;;;;;;;8.63;4.93;;;19.60;98.30;;;;;;4155415;28;20976;-84
2021/06/21 01:10:25;;;;;;;6.87;5.07;;;19.50;98.30;;;;;;4156710;28;20480;-83
2021/06/21 01:12:41;;;;;;;13.13;5.53;;;19.60;98.30;;;;;;4153985;28;21293;-82
2021/06/21 01:14:48;;;;;;;7.20;5.13;;;19.50;98.30;;;;;;4155537;28;20957;-82
2021/06/21 01:16:57;;;;;;;11.33;5.10;;;19.60;98.30;;;;;;4153863;28;20511;-83
2021/06/21 01:19:10;;;;;;;5.80;5.20;;;19.70;98.30;;;;;;4155818;28;20552;-82
2021/06/21 01:21:50;;;;;;;9.47;4.67;;;19.70;98.30;;;;;;4154183;28;20470;-82
2021/06/21 01:24:34;;;;;;;6.40;4.73;;;19.70;98.30;;;;;;4119848;28;20475;-82
2021/06/21 01:26:43;;;;;;;5.30;4.80;;;19.70;98.30;;;;;;4137320;28;20500;-82
2021/06/21 01:29:11;;;;;;;6.87;5.13;;;19.70;98.30;;;;;;4153306;28;20466;-83
2021/06/21 01:31:16;;;;;;;5.20;4.50;;;19.80;98.30;;;;;;4155611;28;20473;-83
2021/06/21 01:33:22;;;;;;;7.10;4.63;;;19.70;98.30;;;;;;4157238;28;20566;-83
2021/06/21 01:35:30;;;;;;;6.47;5.37;;;19.60;98.30;;;;;;4156941;28;20469;-83
2021/06/21 01:37:34;;;;;;;6.97;4.60;;;19.50;98.30;;;;;;4154963;28;20575;-83
2021/06/21 01:39:37;;;;;;;6.43;4.80;;;19.50;98.30;;;;;;4154757;28;20984;-83
2021/06/21 01:41:44;;;;;;;7.90;5.20;;;19.40;98.30;;;;;;4152963;28;20999;-83
2021/06/21 01:43:50;;;;;;;5.70;5.17;;;19.40;98.30;;;;;;4154501;28;20470;-82
2021/06/21 01:45:53;;;;;;;6.03;5.40;;;19.40;98.30;;;;;;4155260;28;20471;-83
2021/06/21 01:47:56;;;;;;;8.00;5.10;;;19.50;98.30;;;;;;4150967;28;20508;-82
2021/06/21 01:50:01;;;;;;;10.77;5.30;;;19.60;98.30;;;;;;4153139;28;20472;-82
2021/06/21 01:52:05;;;;;;;6.60;5.47;;;19.40;98.30;;;;;;4154789;28;20557;-82
2021/06/21 01:54:09;;;;;;;8.00;5.57;;;19.30;98.30;;;;;;4151042;28;20465;-82
2021/06/21 01:56:17;;;;;;;13.13;6.20;;;19.20;98.30;;;;;;4154535;28;20497;-82
2021/06/21 01:58:21;;;;;;;10.40;5.67;;;19.10;98.30;;;;;;4152562;28;20493;-82
2021/06/21 02:00:25;;;;;;;5.80;5.20;;;19.00;98.30;;;;;;4155186;28;20474;-83
2021/06/21 02:02:31;;;;;;;5.60;5.00;;;19.10;98.30;;;;;;4156573;28;20900;-83
2021/06/21 02:04:37;;;;;;;8.03;5.97;;;19.30;98.30;;;;;;4153290;28;20465;-83
2021/06/21 02:06:42;;;;;;;8.70;5.80;;;19.30;98.30;;;;;;4155536;28;20898;-83
2021/06/21 02:08:48;;;;;;;9.10;5.80;;;19.30;98.30;;;;;;4152756;28;20465;-83
2021/06/21 02:10:52;;;;;;;7.07;5.13;;;19.50;98.30;;;;;;4151447;28;20463;-83
2021/06/21 02:12:56;;;;;;;8.53;5.40;;;19.60;98.30;;;;;;4153141;28;20457;-83
2021/06/21 02:14:59;;;;;;;8.93;5.20;;;19.40;98.30;;;;;;4153699;28;20896;-83
2021/06/21 02:17:03;;;;;;;6.40;5.80;;;19.30;98.30;;;;;;4154584;28;20573;-83
2021/06/21 02:19:07;;;;;;;8.33;6.20;;;19.10;98.30;;;;;;4152576;28;20556;-83
2021/06/21 02:21:10;;;;;;;10.50;5.90;;;19.10;98.30;;;;;;4156193;28;20461;-83
2021/06/21 02:23:16;;;;;;;10.60;6.63;;;19.20;98.30;;;;;;4153639;28;20473;-83
2021/06/21 02:25:19;;;;;;;9.67;5.33;;;19.10;98.30;;;;;;4154151;28;20466;-84
2021/06/21 02:27:24;;;;;;;8.33;5.40;;;19.20;98.30;;;;;;4150170;28;21008;-83
2021/06/21 02:29:28;;;;;;;11.20;5.90;;;19.10;98.30;;;;;;4153758;28;20856;-83
2021/06/21 02:31:32;;;;;;;7.80;5.40;;;19.10;98.30;;;;;;4153600;28;20466;-83
2021/06/21 02:33:35;;;;;;;6.30;5.67;;;19.30;98.30;;;;;;4153835;28;20834;-83
2021/06/21 02:35:38;;;;;;;7.37;6.20;;;19.30;98.30;;;;;;4153110;28;21022;-83
2021/06/21 02:39:53;;;;;;;9.00;5.80;;;19.40;98.30;;;;;;4213970;22;21102;-81
2021/06/21 02:41:56;;;;;;;8.00;6.30;;;19.20;98.30;;;;;;4154481;28;20798;-82
2021/06/21 02:43:59;;;;;;;8.17;5.83;;;19.20;98.30;;;;;;4154440;28;20466;-82
2021/06/21 02:46:02;;;;;;;7.63;6.43;;;19.00;98.30;;;;;;4151906;28;20462;-84
2021/06/21 02:48:07;;;;;;;8.10;6.23;;;18.90;98.30;;;;;;4146764;28;20466;-82
2021/06/21 02:50:11;;;;;;;9.20;6.23;;;18.90;98.30;;;;;;4148438;28;20469;-82
2021/06/21 02:52:20;;;;;;;7.93;7.00;;;18.80;98.30;;;;;;4147875;28;20485;-82
2021/06/21 02:54:27;;;;;;;12.20;9.87;;;18.80;98.30;;;;;;4148126;28;20473;-82
2021/06/21 02:56:37;;;;;;;8.50;6.70;;;18.90;98.30;;;;;;4147234;28;20486;-82
2021/06/21 02:58:43;;;;;;;10.00;6.97;;;19.00;98.30;;;;;;4146807;28;20520;-82
2021/06/21 03:00:50;;;;;;;7.27;6.47;;;18.90;98.30;;;;;;4149256;28;20893;-82
2021/06/21 03:02:55;;;;;;;6.27;5.43;;;19.00;98.30;;;;;;4149340;28;20529;-82
2021/06/21 03:05:00;;;;;;;6.60;5.87;;;18.90;98.30;;;;;;4147799;28;20483;-82
2021/06/21 03:07:04;;;;;;;9.33;6.27;;;18.80;98.30;;;;;;4148350;28;20500;-83
2021/06/21 03:09:08;;;;;;;8.57;5.53;;;18.80;98.30;;;;;;4148037;28;20473;-82
2021/06/21 03:11:15;;;;;;;7.90;6.23;;;18.80;98.30;;;;;;4148058;28;20466;-82
2021/06/21 03:13:22;;;;;;;8.10;6.23;;;18.90;98.30;;;;;;4148749;28;20822;-82
2021/06/21 03:15:28;;;;;;;8.70;5.50;;;18.90;98.30;;;;;;4146806;28;20476;-82
2021/06/21 03:17:35;;;;;;;7.57;6.43;;;18.70;98.30;;;;;;4143422;28;21398;-82
2021/06/21 03:19:39;;;;;;;12.20;6.60;;;18.60;98.30;;;;;;4146039;28;20478;-82
2021/06/21 03:21:43;;;;;;;9.10;6.60;;;18.60;98.30;;;;;;4143801;28;20964;-82
2021/06/21 03:23:51;;;;;;;7.03;6.33;;;18.70;98.30;;;;;;4146217;28;20512;-83
2021/06/21 03:25:55;;;;;;;6.73;6.13;;;18.60;98.30;;;;;;4144864;28;20810;-83
2021/06/21 03:28:06;;;;;;;8.83;6.50;;;18.60;98.30;;;;;;4146855;28;20486;-82
2021/06/21 03:30:13;;;;;;;7.00;6.30;;;18.60;98.30;;;;;;4148922;28;20968;-82
2021/06/21 03:32:28;;;;;;;10.70;6.67;;;18.60;98.30;;;;;;4146894;28;20470;-83
2021/06/21 03:34:35;;;;;;;8.07;5.83;;;18.60;98.30;;;;;;4146596;28;20473;-82
2021/06/21 03:36:38;;;;;;;13.47;7.80;;;18.70;98.30;;;;;;4146050;28;20520;-82
2021/06/21 03:38:46;;;;;;;15.40;6.73;;;18.70;98.30;;;;;;4141453;28;20540;-82
2021/06/21 03:40:50;;;;;;;10.70;7.73;;;18.70;98.30;;;;;;4144740;28;20458;-83
2021/06/21 03:42:53;;;;;;;9.43;6.97;;;18.80;98.30;;;;;;4146185;28;20465;-82
2021/06/21 03:44:56;;;;;;;12.43;10.50;;;18.90;98.30;;;;;;4145019;28;20957;-82
2021/06/21 03:47:00;;;;;;;20.27;16.30;;;19.00;98.30;;;;;;4146322;28;20497;-83
2021/06/21 03:49:04;;;;;;;26.20;20.63;;;19.00;98.30;;;;;;4145633;28;20488;-83
2021/06/21 03:51:07;;;;;;;25.43;20.30;;;19.10;98.30;;;;;;4146200;28;20469;-82
2021/06/21 03:53:10;;;;;;;25.87;18.20;;;19.00;98.30;;;;;;4145047;28;20938;-82
2021/06/21 03:55:14;;;;;;;13.03;8.67;;;18.90;98.30;;;;;;4145911;28;20470;-82
2021/06/21 03:57:17;;;;;;;14.70;10.23;;;18.90;98.30;;;;;;4145866;28;20490;-82
2021/06/21 03:59:20;;;;;;;8.87;7.17;;;19.00;98.30;;;;;;4145053;28;20482;-82
2021/06/21 04:01:24;;;;;;;14.13;10.60;;;18.80;98.30;;;;;;4145909;28;20485;-82
2021/06/21 04:03:28;;;;;;;14.63;11.47;;;18.70;98.30;;;;;;4145909;28;20475;-83
2021/06/21 04:05:31;;;;;;;13.73;12.33;;;18.80;98.30;;;;;;4144908;28;20466;-82
2021/06/21 04:07:34;;;;;;;9.67;7.13;;;18.90;98.30;;;;;;4145196;28;20481;-82
2021/06/21 04:09:37;;;;;;;8.70;7.03;;;18.90;98.30;;;;;;4145035;28;20466;-82
2021/06/21 04:11:40;;;;;;;30.27;20.70;;;18.70;98.30;;;;;;4145777;28;20504;-82
2021/06/21 04:13:43;;;;;;;20.43;14.97;;;18.70;98.30;;;;;;4145863;28;20856;-82
2021/06/21 04:15:46;;;;;;;13.10;8.80;;;18.70;98.30;;;;;;4145920;28;20462;-83
2021/06/21 04:17:49;;;;;;;11.30;8.70;;;18.70;98.30;;;;;;4147095;28;20498;-83
2021/06/21 04:19:54;;;;;;;21.10;14.43;;;18.70;98.30;;;;;;4150041;28;20489;-82
2021/06/21 04:21:57;;;;;;;9.63;6.47;;;18.70;98.30;;;;;;4149139;28;20478;-82
2021/06/21 04:24:00;;;;;;;15.50;10.57;;;18.60;98.30;;;;;;4148485;28;20465;-82
2021/06/21 04:26:03;;;;;;;12.17;10.27;;;18.70;98.30;;;;;;4149797;28;20470;-83
2021/06/21 04:28:08;;;;;;;11.60;8.43;;;18.70;98.30;;;;;;4150982;28;20718;-82
2021/06/21 04:30:14;;;;;;;11.30;8.30;;;18.70;98.30;;;;;;4148086;28;20469;-82
2021/06/21 04:32:17;;;;;;;7.50;6.33;;;18.70;98.30;;;;;;4147776;28;20557;-83
2021/06/21 04:34:20;;;;;;;7.67;6.17;;;18.70;98.30;;;;;;4146592;28;20783;-82
2021/06/21 04:36:24;;;;;;;6.80;6.10;;;18.70;98.30;;;;;;4144381;28;20896;-82
2021/06/21 04:38:27;;;;;;;8.40;6.43;;;18.50;98.30;;;;;;4145424;28;20478;-82
2021/06/21 04:40:34;;;;;;;9.50;6.47;;;18.50;98.30;;;;;;4146241;28;20462;-82
2021/06/21 04:42:37;;;;;;;8.83;5.83;;;18.50;98.30;;;;;;4146844;28;20477;-82
2021/06/21 04:44:40;;;;;;;8.13;7.27;;;18.50;98.30;;;;;;4145703;28;20937;-82
2021/06/21 04:46:43;;;;;;;14.23;11.67;;;18.50;98.30;;;;;;4146432;28;20494;-82
2021/06/21 04:48:48;;;;;;;8.63;6.77;;;18.60;98.30;;;;;;4145642;28;20462;-82
2021/06/21 04:50:51;;;;;;;6.70;5.60;;;18.40;98.30;;;;;;4149047;28;20534;-82
2021/06/21 04:52:55;;;;;;;6.73;6.00;;;18.40;98.30;;;;;;4149759;28;20468;-82
2021/06/21 04:55:01;;;;;;;11.40;8.47;;;18.20;98.30;;;;;;4149333;28;20477;-82
2021/06/21 04:57:05;;;;;;;21.70;16.07;;;18.10;98.30;;;;;;4148607;28;20481;-82
2021/06/21 04:59:08;;;;;;;6.53;5.93;;;18.20;98.30;;;;;;4149149;28;20985;-82
2021/06/21 05:01:11;;;;;;;7.23;6.53;;;18.10;98.30;;;;;;4152898;28;20466;-82
2021/06/21 05:03:14;;;;;;;5.53;4.63;;;18.00;98.30;;;;;;4144946;28;20470;-82
2021/06/21 05:05:18;;;;;;;5.30;4.60;;;18.10;98.30;;;;;;4150556;28;20470;-82
2021/06/21 05:07:22;;;;;;;6.23;4.83;;;18.10;98.30;;;;;;4150510;28;20494;-83
2021/06/21 05:09:27;;;;;;;6.10;4.60;;;18.20;98.30;;;;;;4149247;28;20969;-82
2021/06/21 05:11:30;;;;;;;4.60;4.20;;;18.10;98.30;;;;;;4148509;28;20468;-82
2021/06/21 05:13:33;;;;;;;4.97;4.47;;;18.00;98.30;;;;;;4149022;28;20846;-82
2021/06/21 05:15:36;;;;;;;6.33;5.70;;;18.00;98.30;;;;;;4149416;28;20533;-82
2021/06/21 05:17:41;;;;;;;4.87;4.37;;;18.10;98.30;;;;;;4148513;28;20547;-84
2021/06/21 05:19:45;;;;;;;5.03;4.53;;;18.20;98.30;;;;;;4149177;28;20884;-82
2021/06/21 05:21:48;;;;;;;4.03;3.63;;;18.30;98.30;;;;;;4148690;28;20465;-82
2021/06/21 05:23:51;;;;;;;4.40;4.00;;;18.30;98.30;;;;;;4147325;28;20484;-82
2021/06/21 05:25:55;;;;;;;4.70;4.30;;;18.20;98.30;;;;;;4149093;28;21006;-83
2021/06/21 05:27:59;;;;;;;5.00;4.23;;;18.30;98.30;;;;;;4148738;28;20485;-82
2021/06/21 05:30:03;;;;;;;4.83;4.30;;;18.30;98.30;;;;;;4149713;28;20497;-83
2021/06/21 05:32:07;;;;;;;5.60;4.00;;;18.30;98.30;;;;;;4148316;28;20470;-84
2021/06/21 05:34:10;;;;;;;4.60;4.20;;;18.30;98.30;;;;;;4149463;28;20497;-83
2021/06/21 05:36:13;;;;;;;4.17;3.77;;;18.20;98.30;;;;;;4148979;28;20470;-83
2021/06/21 05:38:16;;;;;;;5.17;4.30;;;18.00;98.30;;;;;;4148289;28;20488;-83
2021/06/21 05:40:19;;;;;;;5.17;4.03;;;17.90;98.30;;;;;;4148397;28;20492;-84
2021/06/21 05:42:25;;;;;;;4.57;4.17;;;18.00;98.30;;;;;;4145741;28;20548;-83
2021/06/21 05:44:27;;;;;;;5.30;4.80;;;18.10;98.30;;;;;;4146547;28;20478;-83
2021/06/21 05:46:31;;;;;;;4.83;4.07;;;18.20;98.30;;;;;;4148697;28;20497;-84
2021/06/21 05:48:34;;;;;;;4.43;4.03;;;18.20;98.30;;;;;;4148122;28;20474;-83
2021/06/21 05:50:37;;;;;;;4.50;3.80;;;18.30;98.30;;;;;;4146290;28;20466;-83
2021/06/21 05:52:40;;;;;;;4.63;4.23;;;18.20;98.30;;;;;;4148929;28;20472;-83
2021/06/21 05:54:43;;;;;;;5.23;3.83;;;18.20;98.30;;;;;;4148050;28;20473;-84
2021/06/21 05:56:46;;;;;;;4.90;3.70;;;18.20;98.30;;;;;;4148022;28;20489;-83
2021/06/21 05:58:51;;;;;;;4.27;3.87;;;18.20;98.30;;;;;;4146835;28;20474;-84
2021/06/21 06:00:54;;;;;;;4.90;3.87;;;18.20;98.30;;;;;;4148003;28;20493;-82
2021/06/21 06:02:57;;;;;;;9.53;4.63;;;18.20;98.30;;;;;;4149110;28;20478;-84
2021/06/21 06:05:00;;;;;;;4.67;3.93;;;18.10;98.30;;;;;;4148456;28;20478;-83
2021/06/21 06:07:03;;;;;;;6.73;3.90;;;18.10;98.30;;;;;;4148860;28;20502;-82
2021/06/21 06:09:06;;;;;;;5.90;3.70;;;18.30;98.30;;;;;;4149114;28;20478;-83
2021/06/21 06:11:09;;;;;;;5.10;3.97;;;18.20;98.30;;;;;;4144043;28;20552;-84
2021/06/21 06:13:12;;;;;;;6.73;3.93;;;18.30;98.30;;;;;;4148412;28;20844;-83
2021/06/21 06:15:17;;;;;;;5.97;4.40;;;18.40;98.30;;;;;;4148746;28;20470;-83
2021/06/21 06:17:21;;;;;;;5.53;4.00;;;18.40;98.30;;;;;;4148187;28;20540;-84
2021/06/21 06:19:24;;;;;;;5.60;3.90;;;18.50;98.30;;;;;;4142401;28;20486;-83
2021/06/21 06:21:29;;;;;;;3.90;3.40;;;18.40;98.30;;;;;;4139862;28;20489;-83
2021/06/21 06:23:32;;;;;;;4.20;3.50;;;18.50;98.30;;;;;;4147582;28;20481;-83
2021/06/21 06:25:37;;;;;;;3.93;3.27;;;18.50;98.30;;;;;;4146815;28;20524;-82
2021/06/21 06:27:44;;;;;;;5.50;3.77;;;18.30;98.30;;;;;;4149115;28;20482;-84
2021/06/21 06:29:47;;;;;;;17.30;12.93;;;18.40;98.30;;;;;;4148122;28;20505;-77
2021/06/21 06:31:51;;;;;;;20.17;15.53;;;18.50;98.30;;;;;;4147296;28;20979;-77
2021/06/21 06:34:08;;;;;;;5.20;4.70;;;18.50;98.30;;;;;;4147379;28;20476;-77
2021/06/21 06:36:11;;;;;;;4.73;3.97;;;18.50;98.30;;;;;;4147719;28;20969;-78
2021/06/21 06:38:14;;;;;;;5.00;3.60;;;18.50;98.30;;;;;;4147300;28;20879;-77
2021/06/21 06:40:18;;;;;;;4.40;4.00;;;18.50;98.30;;;;;;4148463;28;21170;-78
2021/06/21 06:42:21;;;;;;;3.43;3.13;;;18.60;98.30;;;;;;4148903;28;20466;-79
2021/06/21 06:44:24;;;;;;;7.40;3.80;;;18.50;98.30;;;;;;4148221;28;20474;-78
2021/06/21 06:46:27;;;;;;;5.30;3.60;;;18.50;98.30;;;;;;4148981;28;20492;-82
2021/06/21 06:48:31;;;;;;;5.10;3.33;;;18.40;98.30;;;;;;4148777;28;20553;-82
2021/06/21 06:50:34;;;;;;;7.20;3.77;;;18.50;98.30;;;;;;4149761;28;20466;-82
2021/06/21 06:52:38;;;;;;;3.67;3.37;;;18.40;98.30;;;;;;4149993;28;20512;-81
2021/06/21 06:56:57;;;;;;;5.43;3.33;;;18.50;98.30;;;;;;4150683;28;20943;-82
2021/06/21 06:57:10;;;;;;;3.87;3.47;;;18.40;98.30;;;;;;4146743;28;20498;-82
2021/06/21 06:59:13;;;;;;;9.67;7.47;;;18.30;98.30;;;;;;4146835;28;20537;-82
2021/06/21 07:01:16;;;;;;;21.20;17.37;;;18.30;98.30;;;;;;4149947;28;20565;-82
2021/06/21 07:03:19;;;;;;;9.80;7.70;;;18.50;98.30;;;;;;4149966;28;20498;-81
2021/06/21 07:05:35;;;;;;;5.73;5.13;;;18.50;98.30;;;;;;4150177;28;20480;-81
2021/06/21 07:07:47;;;;;;;5.33;4.83;;;18.50;98.30;;;;;;4149560;28;20552;-82
2021/06/21 07:09:50;;;;;;;6.03;5.37;;;18.50;98.30;;;;;;4149717;28;20544;-82
2021/06/21 07:11:53;;;;;;;4.53;4.13;;;18.50;98.30;;;;;;4148861;28;20473;-82
2021/06/21 07:13:56;;;;;;;6.63;4.80;;;18.60;98.30;;;;;;4149712;28;20473;-82
2021/06/21 07:15:59;;;;;;;5.27;3.83;;;18.60;98.30;;;;;;4149901;28;21102;-82
2021/06/21 07:18:02;;;;;;;5.10;4.47;;;18.60;98.30;;;;;;4149581;28;20481;-81
2021/06/21 07:20:06;;;;;;;6.70;4.87;;;18.50;98.30;;;;;;4148808;28;20838;-81
2021/06/21 07:22:11;;;;;;;5.43;4.23;;;18.50;98.30;;;;;;4148284;28;20497;-82
2021/06/21 07:24:14;;;;;;;8.13;7.33;;;18.50;98.30;;;;;;4149534;28;20936;-82
2021/06/21 07:26:17;;;;;;;14.10;9.70;;;18.60;98.30;;;;;;4150135;28;20488;-82
2021/06/21 07:28:20;;;;;;;4.13;3.73;;;18.60;98.30;;;;;;4149234;28;20477;-81
2021/06/21 07:30:24;;;;;;;4.30;3.90;;;18.60;98.30;;;;;;4150798;28;20484;-82
2021/06/21 07:32:27;;;;;;;3.53;3.23;;;18.60;98.30;;;;;;4150365;28;20478;-82
2021/06/21 07:34:31;;;;;;;3.20;2.90;;;18.50;98.30;;;;;;4149615;28;20505;-82
2021/06/21 07:36:35;;;;;;;4.27;3.87;;;18.50;98.30;;;;;;4149509;28;20486;-82
2021/06/21 07:38:40;;;;;;;3.60;3.30;;;18.60;98.30;;;;;;4147346;28;20539;-82
2021/06/21 07:40:43;;;;;;;3.97;3.63;;;18.60;98.30;;;;;;4147835;28;20461;-81
2021/06/21 07:42:46;;;;;;;3.53;3.23;;;18.60;98.30;;;;;;4149728;28;20465;-81
2021/06/21 07:44:49;;;;;;;3.83;3.43;;;18.50;98.30;;;;;;4149709;28;20496;-82
2021/06/21 07:46:52;;;;;;;3.33;2.80;;;18.60;98.30;;;;;;4149232;28;20481;-82
2021/06/21 07:48:54;;;;;;;3.77;3.20;;;18.60;98.30;;;;;;4149757;28;20474;-82
2021/06/21 07:50:57;;;;;;;3.50;3.20;;;18.40;98.30;;;;;;4149939;28;21254;-82
2021/06/21 07:53:03;;;;;;;5.80;5.20;;;18.40;98.30;;;;;;4150041;28;20466;-81
2021/06/21 07:55:08;;;;;;;12.83;10.30;;;18.30;98.30;;;;;;4149290;28;20496;-81
2021/06/21 07:57:11;;;;;;;8.43;6.67;;;18.30;98.30;;;;;;4148907;28;20560;-81
2021/06/21 07:59:14;;;;;;;4.40;4.00;;;18.40;98.30;;;;;;4149088;28;20527;-82
2021/06/21 08:01:17;;;;;;;5.57;3.50;;;18.50;98.30;;;;;;4149208;28;20728;-82
2021/06/21 08:03:20;;;;;;;3.20;2.60;;;18.50;98.30;;;;;;4149670;28;20478;-82
2021/06/21 08:05:24;;;;;;;3.43;3.13;;;18.60;98.30;;;;;;4147081;28;20485;-82
2021/06/21 08:07:27;;;;;;;2.93;2.63;;;18.50;98.30;;;;;;4149582;28;20490;-82
2021/06/21 08:09:30;;;;;;;2.90;2.70;;;18.30;98.30;;;;;;4147816;28;20469;-81
2021/06/21 08:11:37;;;;;;;2.87;2.67;;;18.30;98.30;;;;;;4149376;28;20470;-81
2021/06/21 08:13:40;;;;;;;2.90;2.70;;;18.40;98.30;;;;;;4149901;28;20478;-82
2021/06/21 08:15:43;;;;;;;3.37;3.07;;;18.50;98.30;;;;;;4147624;28;20544;-82
2021/06/21 08:17:50;;;;;;;3.90;3.50;;;18.70;98.30;;;;;;4149129;28;20508;-82
2021/06/21 08:19:53;;;;;;;5.33;4.00;;;18.70;98.30;;;;;;4149697;28;20482;-82
2021/06/21 08:21:56;;;;;;;4.53;3.80;;;18.80;98.30;;;;;;4148809;28;20489;-82
2021/06/21 08:24:08;;;;;;;3.77;3.37;;;19.00;98.30;;;;;;4149356;28;20562;-81
2021/06/21 08:26:12;;;;;;;3.90;3.30;;;18.90;98.30;;;;;;4150695;28;20978;-82
2021/06/21 08:28:17;;;;;;;4.60;4.20;;;18.90;98.30;;;;;;4151191;28;20473;-82
2021/06/21 08:30:20;;;;;;;5.60;3.33;;;18.90;98.30;;;;;;4151838;28;20536;-82
2021/06/21 08:32:23;;;;;;;5.47;4.10;;;18.90;98.30;;;;;;4151617;28;20478;-82
2021/06/21 08:34:26;;;;;;;4.03;3.10;;;18.90;98.30;;;;;;4151372;28;20465;-82
2021/06/21 08:36:29;;;;;;;3.90;3.50;;;19.00;98.30;;;;;;4151188;28;20502;-82
2021/06/21 08:38:32;;;;;;;3.03;2.77;;;19.10;98.30;;;;;;4152162;28;20521;-82
2021/06/21 08:40:35;;;;;;;3.90;3.50;;;19.20;98.30;;;;;;4151288;28;20481;-81
2021/06/21 08:42:38;;;;;;;3.10;2.90;;;19.30;98.30;;;;;;4151144;28;20857;-81
2021/06/21 08:44:43;;;;;;;3.90;2.83;;;19.30;98.30;;;;;;4150492;28;20470;-81
2021/06/21 08:46:49;;;;;;;2.97;2.67;;;19.30;98.30;;;;;;4151124;28;20490;-81
2021/06/21 08:48:55;;;;;;;4.20;3.80;;;19.40;98.30;;;;;;4150596;28;20561;-81
2021/06/21 08:50:59;;;;;;;2.80;2.60;;;19.40;98.30;;;;;;4151210;28;20977;-81
2021/06/21 08:53:02;;;;;;;3.37;3.07;;;19.40;98.30;;;;;;4150941;28;20469;-81
2021/06/21 08:55:10;;;;;;;3.20;2.90;;;19.50;98.30;;;;;;4150179;28;20548;-81
2021/06/21 08:57:13;;;;;;;3.10;2.80;;;19.50;98.30;;;;;;4150270;28;20482;-81
2021/06/21 08:59:16;;;;;;;3.13;2.40;;;19.50;98.30;;;;;;4150777;28;20466;-82
2021/06/21 09:01:21;;;;;;;2.60;2.40;;;19.40;98.30;;;;;;4150671;28;20477;-81
2021/06/21 09:03:25;;;;;;;3.13;2.83;;;19.40;98.30;;;;;;4150604;28;20483;-81
2021/06/21 09:05:28;;;;;;;2.87;2.67;;;19.40;98.30;;;;;;4151890;28;20474;-81
2021/06/21 09:07:31;;;;;;;4.27;3.00;;;19.40;98.30;;;;;;4150391;28;21004;-82
2021/06/21 09:09:34;;;;;;;3.20;2.60;;;19.50;98.30;;;;;;4150537;28;20888;-81
2021/06/21 09:11:54;;;;;;;3.30;2.70;;;19.60;98.30;;;;;;4150531;28;20473;-82
2021/06/21 09:13:57;;;;;;;3.73;2.90;;;19.60;98.30;;;;;;4152041;28;20473;-81
2021/06/21 09:15:59;;;;;;;3.30;2.70;;;19.70;98.30;;;;;;4150582;28;20477;-82
2021/06/21 09:18:35;;;;;;;3.87;3.23;;;19.70;98.30;;;;;;4149785;28;20493;-81
2021/06/21 09:20:37;;;;;;;4.67;3.53;;;19.70;98.30;;;;;;4150534;28;20473;-81
2021/06/21 09:22:42;;;;;;;2.83;2.57;;;19.70;98.30;;;;;;4150186;28;21128;-81
2021/06/21 09:24:44;;;;;;;4.83;2.70;;;19.70;98.30;;;;;;4150042;28;20876;-81
2021/06/21 09:26:49;;;;;;;3.67;2.50;;;19.60;98.30;;;;;;4150670;28;20489;-81
2021/06/21 09:28:53;;;;;;;3.80;2.80;;;19.60;98.30;;;;;;4150060;28;20484;-81
2021/06/21 09:30:59;;;;;;;2.70;2.33;;;19.60;98.30;;;;;;4150505;28;20527;-82
2021/06/21 09:33:03;;;;;;;2.83;2.60;;;19.60;98.30;;;;;;4148061;28;20470;-81
2021/06/21 09:35:09;;;;;;;2.73;2.47;;;19.70;98.30;;;;;;4146523;28;20481;-81
2021/06/21 09:37:14;;;;;;;4.00;2.37;;;19.60;98.30;;;;;;4148545;28;20493;-81
2021/06/21 09:39:22;;;;;;;2.80;2.50;;;19.60;98.30;;;;;;4149177;28;20811;-81
2021/06/21 09:41:25;;;;;;;3.03;2.30;;;19.60;98.30;;;;;;4150007;28;20520;-82
2021/06/21 09:43:30;;;;;;;2.67;2.40;;;19.60;98.30;;;;;;4149899;28;20532;-82
2021/06/21 09:45:33;;;;;;;2.70;2.27;;;19.50;98.30;;;;;;4150415;28;20888;-81
2021/06/21 09:47:37;;;;;;;2.60;2.40;;;19.40;98.30;;;;;;4150511;28;20540;-81
2021/06/21 09:50:01;;;;;;;2.80;2.60;;;19.40;98.30;;;;;;4149954;28;20492;-81
2021/06/21 09:52:06;;;;;;;2.73;2.53;;;19.50;98.30;;;;;;4150274;28;20482;-81
2021/06/21 09:54:11;;;;;;;3.40;3.10;;;19.50;98.30;;;;;;4150254;28;20508;-81
2021/06/21 09:56:37;;;;;;;4.20;2.97;;;19.50;98.30;;;;;;4149966;28;20478;-81
2021/06/21 09:58:40;;;;;;;3.33;2.70;;;19.50;98.30;;;;;;4150217;28;20484;-82
2021/06/21 10:00:47;;;;;;;4.20;3.10;;;19.50;98.30;;;;;;4150117;28;20474;-81
2021/06/21 10:03:10;;;;;;;3.53;3.17;;;19.60;98.30;;;;;;4149921;28;20489;-81
2021/06/21 10:05:22;;;;;;;3.67;3.03;;;19.60;98.30;;;;;;4150296;28;20489;-81
2021/06/21 10:07:31;;;;;;;3.00;2.80;;;19.60;98.30;;;;;;4150225;28;20498;-81
2021/06/21 10:09:34;;;;;;;3.00;2.70;;;19.60;98.30;;;;;;4154529;28;20465;-80
2021/06/21 10:11:43;;;;;;;3.20;2.90;;;19.60;98.30;;;;;;4154705;28;21033;-81
2021/06/21 10:13:45;;;;;;;5.70;4.07;;;19.60;98.30;;;;;;4155430;28;20462;-80
2021/06/21 10:15:50;;;;;;;3.23;2.93;;;19.60;98.30;;;;;;4155440;28;20953;-80
2021/06/21 10:17:53;;;;;;;2.70;2.50;;;19.60;98.30;;;;;;4154630;28;20498;-81
2021/06/21 10:19:56;;;;;;;3.03;2.73;;;19.50;98.30;;;;;;4155771;28;20486;-81
2021/06/21 10:22:00;;;;;;;2.77;2.57;;;19.60;98.30;;;;;;4151829;28;20477;-81
2021/06/21 10:24:05;;;;;;;2.60;2.40;;;19.60;98.30;;;;;;4149292;28;20493;-82
2021/06/21 10:26:09;;;;;;;3.30;3.00;;;19.50;98.30;;;;;;4150873;28;20477;-81
2021/06/21 10:28:12;;;;;;;2.97;2.73;;;19.50;98.30;;;;;;4149365;28;20500;-81
2021/06/21 10:30:18;;;;;;;3.50;2.87;;;19.50;98.30;;;;;;4149912;28;20872;-81
2021/06/21 10:32:22;;;;;;;3.10;2.80;;;19.50;98.30;;;;;;4150497;28;20497;-80
2021/06/21 10:34:26;;;;;;;3.90;3.50;;;19.50;98.30;;;;;;4150305;28;20612;-81
2021/06/21 10:36:41;;;;;;;3.60;3.30;;;19.50;98.30;;;;;;4150596;28;20497;-81
2021/06/21 10:38:44;;;;;;;4.23;3.83;;;19.50;98.30;;;;;;4150185;28;20486;-81
2021/06/21 10:40:56;;;;;;;4.57;3.97;;;19.60;98.30;;;;;;4151417;28;20850;-82
2021/06/21 10:42:59;;;;;;;4.27;3.87;;;19.60;98.30;;;;;;4149632;28;20504;-81
2021/06/21 10:45:04;;;;;;;4.67;4.03;;;19.70;98.30;;;;;;4154088;28;20973;-81
2021/06/21 10:47:28;;;;;;;4.60;4.20;;;19.70;98.30;;;;;;4154617;28;20585;-81
2021/06/21 10:49:34;;;;;;;7.20;5.20;;;19.70;98.30;;;;;;4155186;28;20478;-80
2021/06/21 10:51:40;;;;;;;3.23;2.90;;;19.70;98.30;;;;;;4155065;28;20504;-80